Time;durP1;ratioP1;P1;durP2;ratioP2;P2;SDS_P1;SDS_P2;PMS_P1;PMS_P2;Temp;Humidity;BMP_temperature;BMP_pressure;BME280_temperature;BME280_humidity;BME280_pressure;Samples;Min_cycle;Max_cycle;Signal;HPM_P1;HPM_P2
2023/07/09 00:01:17;;;;;;;;;;;20.50;96.90;;;;;;7570904;19;19925;-74
2023/07/09 00:03:51;;;;;;;;;;;20.30;97.10;;;;;;7585318;19;19919;-75
2023/07/09 00:06:24;;;;;;;;;;;20.10;97.60;;;;;;7583774;19;19927;-74
2023/07/09 00:08:56;;;;;;;;;;;20.00;98.00;;;;;;7590788;19;19926;-74
2023/07/09 00:11:28;;;;;;;;;;;19.90;98.50;;;;;;7591119;19;19923;-75
2023/07/09 00:14:00;;;;;;;;;;;19.80;98.70;;;;;;7595067;19;20344;-74
2023/07/09 00:16:32;;;;;;;;;;;19.80;99.20;;;;;;7592616;19;20018;-74
2023/07/09 00:19:11;;;;;;;;;;;19.70;99.20;;;;;;7593521;19;21066;-74
2023/07/09 00:21:45;;;;;;;;;;;19.80;99.30;;;;;;7597922;19;19925;-75
2023/07/09 00:24:17;;;;;;;;;;;19.90;99.50;;;;;;7588244;19;19926;-74
2023/07/09 00:26:49;;;;;;;;;;;19.90;99.60;;;;;;7583144;19;20033;-74
2023/07/09 00:29:22;;;;;;;;;;;19.80;99.70;;;;;;7577668;19;20495;-74
2023/07/09 00:31:54;;;;;;;;;;;19.80;99.90;;;;;;7582188;19;19927;-74
2023/07/09 00:34:26;;;;;;;;;;;19.70;99.90;;;;;;7586156;19;20497;-74
2023/07/09 00:36:58;;;;;;;;;;;19.60;99.90;;;;;;7600536;19;19919;-74
2023/07/09 00:39:31;;;;;;;;;;;19.50;99.90;;;;;;7595899;19;19926;-75
2023/07/09 00:42:04;;;;;;;;;;;19.50;99.90;;;;;;7581573;19;19927;-74
2023/07/09 00:44:36;;;;;;;;;;;19.50;99.90;;;;;;7584238;19;19964;-75
2023/07/09 00:47:18;;;;;;;;;;;19.50;99.90;;;;;;7580294;19;20391;-74
2023/07/09 00:49:57;;;;;;;;;;;19.50;99.90;;;;;;7590605;19;19932;-74
2023/07/09 00:52:35;;;;;;;;;;;19.40;99.90;;;;;;7594555;19;19960;-74
2023/07/09 00:55:14;;;;;;;;;;;19.30;99.90;;;;;;7579149;19;19925;-73
2023/07/09 00:57:55;;;;;;;;;;;19.30;99.90;;;;;;7609756;19;19923;-73
2023/07/09 01:00:35;;;;;;;;;;;19.30;99.90;;;;;;7594359;19;19914;-74
2023/07/09 01:03:11;;;;;;;;;;;19.20;99.90;;;;;;7606972;19;19970;-74
2023/07/09 01:05:44;;;;;;;;;;;19.10;99.90;;;;;;7602725;19;20652;-74
2023/07/09 01:08:16;;;;;;;;;;;19.00;99.90;;;;;;7598902;19;19923;-74
2023/07/09 01:10:50;;;;;;;;;;;19.10;99.90;;;;;;7583721;19;19918;-74
2023/07/09 01:13:22;;;;;;;;;;;19.10;99.90;;;;;;7570320;19;19914;-74
2023/07/09 01:15:55;;;;;;;;;;;19.20;99.90;;;;;;7580483;19;20033;-74
2023/07/09 01:18:27;;;;;;;;;;;19.30;99.90;;;;;;7582187;19;19986;-75
2023/07/09 01:21:03;;;;;;;;;;;19.40;99.90;;;;;;7605855;19;19919;-74
2023/07/09 01:23:36;;;;;;;;;;;19.50;99.90;;;;;;7595289;19;19919;-74
2023/07/09 01:26:08;;;;;;;;;;;19.40;99.90;;;;;;7576164;19;19918;-73
2023/07/09 01:28:43;;;;;;;;;;;19.30;99.90;;;;;;7577175;19;19922;-74
2023/07/09 01:31:15;;;;;;;;;;;19.20;99.90;;;;;;7587931;19;19931;-74
2023/07/09 01:33:47;;;;;;;;;;;19.10;99.90;;;;;;7602810;19;20016;-74
2023/07/09 01:36:24;;;;;;;;;;;19.00;99.90;;;;;;7576357;19;19952;-74
2023/07/09 01:38:56;;;;;;;;;;;18.90;99.90;;;;;;7580881;19;19922;-74
2023/07/09 01:41:30;;;;;;;;;;;18.90;99.90;;;;;;7588430;19;19922;-74
2023/07/09 01:44:02;;;;;;;;;;;18.80;99.90;;;;;;7597153;19;20351;-74
2023/07/09 01:46:34;;;;;;;;;;;18.80;99.90;;;;;;7592610;19;19934;-74
2023/07/09 01:49:07;;;;;;;;;;;18.70;99.90;;;;;;7598252;19;19922;-74
2023/07/09 01:51:39;;;;;;;;;;;18.70;99.90;;;;;;7591238;19;19919;-74
2023/07/09 01:54:11;;;;;;;;;;;18.70;99.90;;;;;;7592877;19;19923;-74
2023/07/09 01:56:43;;;;;;;;;;;18.70;99.90;;;;;;7587619;19;19919;-74
2023/07/09 01:59:16;;;;;;;;;;;18.60;99.90;;;;;;7575324;19;20263;-75
2023/07/09 02:01:48;;;;;;;;;;;18.60;99.90;;;;;;7568728;19;19915;-74
2023/07/09 02:04:20;;;;;;;;;;;18.50;99.90;;;;;;7582757;19;19915;-74
2023/07/09 02:06:52;;;;;;;;;;;18.50;99.90;;;;;;7590635;19;19926;-74
2023/07/09 02:09:24;;;;;;;;;;;18.50;99.90;;;;;;7594306;19;20374;-74
2023/07/09 02:11:56;;;;;;;;;;;18.50;99.90;;;;;;7595786;19;19926;-74
2023/07/09 02:14:29;;;;;;;;;;;18.60;99.90;;;;;;7588613;19;19986;-74
2023/07/09 02:17:01;;;;;;;;;;;18.50;99.90;;;;;;7600264;19;19922;-74
2023/07/09 02:19:34;;;;;;;;;;;18.50;99.90;;;;;;7595048;19;19933;-74
2023/07/09 02:22:06;;;;;;;;;;;18.60;99.90;;;;;;7591391;19;19919;-74
2023/07/09 02:24:39;;;;;;;;;;;18.70;99.90;;;;;;7595002;19;19943;-74
2023/07/09 02:27:12;;;;;;;;;;;18.70;99.90;;;;;;7599408;19;19952;-74
2023/07/09 02:29:45;;;;;;;;;;;18.50;99.90;;;;;;7587906;19;20034;-74
2023/07/09 02:32:21;;;;;;;;;;;18.50;99.90;;;;;;7586188;19;19915;-74
2023/07/09 02:34:54;;;;;;;;;;;18.40;99.90;;;;;;7586685;19;19919;-74
2023/07/09 02:37:27;;;;;;;;;;;18.30;99.90;;;;;;7598244;19;19917;-74
2023/07/09 02:39:59;;;;;;;;;;;18.50;99.90;;;;;;7592921;19;19919;-74
2023/07/09 02:42:31;;;;;;;;;;;18.50;99.90;;;;;;7583439;19;19933;-74
2023/07/09 02:45:04;;;;;;;;;;;18.40;99.90;;;;;;7598952;19;19926;-74
2023/07/09 02:47:36;;;;;;;;;;;18.40;99.90;;;;;;7594928;19;19926;-74
2023/07/09 02:50:09;;;;;;;;;;;18.60;99.90;;;;;;7571653;19;19922;-74
2023/07/09 02:52:42;;;;;;;;;;;18.70;99.90;;;;;;7585321;19;19914;-74
2023/07/09 02:55:14;;;;;;;;;;;18.70;99.90;;;;;;7601783;19;19926;-74
2023/07/09 02:57:46;;;;;;;;;;;18.70;99.90;;;;;;7592332;19;20429;-74
2023/07/09 03:00:19;;;;;;;;;;;18.60;99.90;;;;;;7578342;19;19922;-74
2023/07/09 03:02:51;;;;;;;;;;;18.50;99.90;;;;;;7583378;19;20433;-75
2023/07/09 03:05:23;;;;;;;;;;;18.60;99.90;;;;;;7568942;19;19933;-74
2023/07/09 03:07:56;;;;;;;;;;;18.60;99.90;;;;;;7573998;19;19970;-75
2023/07/09 03:10:28;;;;;;;;;;;18.50;99.90;;;;;;7568993;19;19911;-75
2023/07/09 03:13:00;;;;;;;;;;;18.50;99.90;;;;;;7543834;19;19922;-74
2023/07/09 03:15:33;;;;;;;;;;;18.40;99.90;;;;;;7573408;19;19914;-74
2023/07/09 03:18:05;;;;;;;;;;;18.40;99.90;;;;;;7574201;19;19931;-74
2023/07/09 03:20:38;;;;;;;;;;;18.40;99.90;;;;;;7575020;19;20464;-74
2023/07/09 03:23:11;;;;;;;;;;;18.40;99.90;;;;;;7577659;19;19936;-75
2023/07/09 03:25:44;;;;;;;;;;;18.40;99.90;;;;;;7584450;19;20033;-74
2023/07/09 03:28:16;;;;;;;;;;;18.40;99.90;;;;;;7573926;19;19957;-74
2023/07/09 03:30:49;;;;;;;;;;;18.40;99.90;;;;;;7569747;19;19949;-74
2023/07/09 03:33:21;;;;;;;;;;;18.40;99.90;;;;;;7543564;19;21187;-74
2023/07/09 03:35:54;;;;;;;;;;;18.30;99.90;;;;;;7568439;19;19918;-75
2023/07/09 03:38:27;;;;;;;;;;;18.30;99.90;;;;;;7588463;19;20529;-74
2023/07/09 03:40:59;;;;;;;;;;;18.30;99.90;;;;;;7592989;19;19938;-75
2023/07/09 03:43:31;;;;;;;;;;;18.30;99.90;;;;;;7587698;19;20971;-75
2023/07/09 03:46:03;;;;;;;;;;;18.20;99.90;;;;;;7588454;19;20381;-75
2023/07/09 03:48:35;;;;;;;;;;;18.30;99.90;;;;;;7586143;19;19931;-74
2023/07/09 03:51:08;;;;;;;;;;;18.30;99.90;;;;;;7579967;19;19930;-74
2023/07/09 03:53:40;;;;;;;;;;;18.30;99.90;;;;;;7585533;19;19994;-76
2023/07/09 03:56:12;;;;;;;;;;;18.30;99.90;;;;;;7578288;19;19918;-75
2023/07/09 03:58:44;;;;;;;;;;;18.30;99.90;;;;;;7584166;19;19919;-75
2023/07/09 04:01:16;;;;;;;;;;;18.30;99.90;;;;;;7573904;19;19927;-75
2023/07/09 04:03:48;;;;;;;;;;;18.20;99.90;;;;;;7574559;19;19921;-74
2023/07/09 04:06:21;;;;;;;;;;;18.20;99.90;;;;;;7580753;19;20577;-74
2023/07/09 04:08:53;;;;;;;;;;;18.40;99.90;;;;;;7595362;19;19923;-75
2023/07/09 04:11:25;;;;;;;;;;;18.40;99.90;;;;;;7582838;19;19962;-74
2023/07/09 04:13:57;;;;;;;;;;;18.40;99.90;;;;;;7595458;19;19926;-75
2023/07/09 04:16:29;;;;;;;;;;;18.40;99.90;;;;;;7565103;19;19929;-74
2023/07/09 04:19:01;;;;;;;;;;;18.40;99.90;;;;;;7596708;19;19922;-74
2023/07/09 04:21:34;;;;;;;;;;;18.50;99.90;;;;;;7589786;19;19930;-75
2023/07/09 04:24:06;;;;;;;;;;;18.50;99.90;;;;;;7586015;19;20687;-75
2023/07/09 04:26:38;;;;;;;;;;;18.50;99.90;;;;;;7587139;19;20790;-74
2023/07/09 04:29:11;;;;;;;;;;;18.40;99.90;;;;;;7578380;19;19915;-75
2023/07/09 04:31:43;;;;;;;;;;;18.40;99.90;;;;;;7575576;19;19934;-75
2023/07/09 04:34:15;;;;;;;;;;;18.40;99.90;;;;;;7560600;19;19989;-73
2023/07/09 04:36:47;;;;;;;;;;;18.50;99.90;;;;;;7579013;19;19941;-74
2023/07/09 04:39:19;;;;;;;;;;;18.60;99.90;;;;;;7598481;19;19923;-75
2023/07/09 04:41:51;;;;;;;;;;;18.60;99.90;;;;;;7574282;19;19934;-73
2023/07/09 04:44:24;;;;;;;;;;;18.50;99.90;;;;;;7587654;19;19919;-74
2023/07/09 04:46:56;;;;;;;;;;;18.70;99.90;;;;;;7580331;19;19926;-74
2023/07/09 04:49:29;;;;;;;;;;;18.70;99.90;;;;;;7588219;19;19939;-74
2023/07/09 04:52:01;;;;;;;;;;;18.60;99.90;;;;;;7586658;19;19990;-74
2023/07/09 04:54:34;;;;;;;;;;;18.70;99.90;;;;;;7589938;19;19922;-74
2023/07/09 04:57:06;;;;;;;;;;;18.80;99.90;;;;;;7588924;19;19956;-74
2023/07/09 04:59:38;;;;;;;;;;;18.80;99.90;;;;;;7598605;19;19923;-73
2023/07/09 05:02:11;;;;;;;;;;;18.80;99.90;;;;;;7592286;19;19944;-73
2023/07/09 05:04:43;;;;;;;;;;;;;;;;;;7606322;19;19922;-74
2023/07/09 05:07:16;;;;;;;;;;;18.80;99.90;;;;;;7584251;19;20567;-73
2023/07/09 05:09:48;;;;;;;;;;;;;;;;;;7596451;19;21558;-76
2023/07/09 05:12:21;;;;;;;;;;;;;;;;;;7588074;19;20627;-73
2023/07/09 05:14:53;;;;;;;;;;;;;;;;;;7586467;19;19926;-73
2023/07/09 05:17:26;;;;;;;;;;;;;;;;;;7578665;19;19926;-73
2023/07/09 05:19:58;;;;;;;;;;;;;;;;;;7596832;19;19926;-74
2023/07/09 05:22:31;;;;;;;;;;;;;;;;;;7592392;19;19998;-75
2023/07/09 05:25:03;;;;;;;;;;;;;;;;;;7596995;19;19990;-74
2023/07/09 05:27:36;;;;;;;;;;;;;;;;;;7586962;19;19922;-74
2023/07/09 05:30:08;;;;;;;;;;;;;;;;;;7596505;19;21327;-73
2023/07/09 05:32:41;;;;;;;;;;;;;;;;;;7588179;19;19922;-75
2023/07/09 05:35:13;;;;;;;;;;;;;;;;;;7599766;19;19941;-74
2023/07/09 05:37:46;;;;;;;;;;;;;;;;;;7593473;19;19923;-74
2023/07/09 05:40:19;;;;;;;;;;;;;;;;;;7593496;19;20669;-74
2023/07/09 05:42:51;;;;;;;;;;;;;;;;;;7589773;19;19981;-74
2023/07/09 05:45:23;;;;;;;;;;;;;;;;;;7600279;19;19918;-75
2023/07/09 05:47:56;;;;;;;;;;;;;;;;;;7595493;19;20430;-75
2023/07/09 05:50:28;;;;;;;;;;;;;;;;;;7591480;19;19922;-73
2023/07/09 05:53:01;;;;;;;;;;;;;;;;;;7598310;19;19955;-75
2023/07/09 05:55:34;;;;;;;;;;;;;;;;;;7588208;19;20005;-75
2023/07/09 05:58:06;;;;;;;;;;;;;;;;;;7602647;19;19930;-76
2023/07/09 06:00:41;;;;;;;;;;;;;;;;;;7589694;19;20013;-75
2023/07/09 06:03:14;;;;;;;;;;;;;;;;;;7599616;19;19926;-75
2023/07/09 06:05:49;;;;;;;;;;;;;;;;;;7590836;19;19918;-74
2023/07/09 06:08:21;;;;;;;;;;;;;;;;;;7579346;19;19930;-74
2023/07/09 06:10:54;;;;;;;;;;;;;;;;;;7588229;19;19918;-75
2023/07/09 06:13:26;;;;;;;;;;;;;;;;;;7577419;19;20616;-75
2023/07/09 06:15:59;;;;;;;;;;;;;;;;;;7586443;19;20034;-75
2023/07/09 06:18:33;;;;;;;;;;;;;;;;;;7575107;19;19927;-74
2023/07/09 06:21:07;;;;;;;;;;;;;;;;;;7579940;19;20878;-74
2023/07/09 06:23:40;;;;;;;;;;;;;;;;;;7588074;19;19982;-75
2023/07/09 06:26:12;;;;;;;;;;;;;;;;;;7595308;19;19918;-73
2023/07/09 06:28:45;;;;;;;;;;;;;;;;;;7593867;19;19918;-73
2023/07/09 06:31:18;;;;;;;;;;;;;;;;;;7590793;19;19986;-74
2023/07/09 06:33:51;;;;;;;;;;;;;;;;;;7576288;19;19931;-73
2023/07/09 06:36:23;;;;;;;;;;;;;;;;;;7600272;19;20022;-74
2023/07/09 06:38:56;;;;;;;;;;;;;;;;;;7574683;19;19930;-74
2023/07/09 06:41:29;;;;;;;;;;;;;;;;;;7584604;19;19926;-74
2023/07/09 06:44:01;;;;;;;;;;;;;;;;;;7548748;19;20572;-73
2023/07/09 06:46:34;;;;;;;;;;;;;;;;;;7567010;19;20021;-74
2023/07/09 06:49:06;;;;;;;;;;;;;;;;;;7557816;19;19918;-74
2023/07/09 06:51:39;;;;;;;;;;;;;;;;;;7543169;19;19924;-74
2023/07/09 06:54:12;;;;;;;;;;;;;;;;;;7545779;19;19929;-74
2023/07/09 06:56:44;;;;;;;;;;;19.20;99.90;;;;;;7571217;19;20333;-74
2023/07/09 06:59:16;;;;;;;;;;;25.00;93.70;;;;;;7595993;19;20346;-74
2023/07/09 07:01:48;;;;;;;;;;;25.00;92.80;;;;;;7595654;19;19930;-75
2023/07/09 07:04:21;;;;;;;;;;;25.10;93.20;;;;;;7603075;19;19974;-75
2023/07/09 07:06:55;;;;;;;;;;;25.20;93.10;;;;;;7591779;19;19915;-74
2023/07/09 07:09:27;;;;;;;;;;;25.30;92.70;;;;;;7593629;19;19930;-75
2023/07/09 07:12:00;;;;;;;;;;;25.50;91.60;;;;;;7574901;19;19923;-75
2023/07/09 07:14:32;;;;;;;;;;;25.70;90.70;;;;;;7596783;19;19926;-74
2023/07/09 07:17:04;;;;;;;;;;;25.70;90.40;;;;;;7592968;19;19951;-73
2023/07/09 07:19:36;;;;;;;;;;;25.80;89.30;;;;;;7598952;19;19922;-74
2023/07/09 07:22:09;;;;;;;;;;;25.90;89.00;;;;;;7596687;19;20262;-75
2023/07/09 07:24:42;;;;;;;;;;;26.10;87.60;;;;;;7592984;19;20368;-75
2023/07/09 07:27:14;;;;;;;;;;;26.10;87.10;;;;;;7599078;19;19911;-74
2023/07/09 07:29:46;;;;;;;;;;;26.20;85.80;;;;;;7597037;19;19918;-75
2023/07/09 07:32:18;;;;;;;;;;;26.30;83.50;;;;;;7592788;19;19985;-75
2023/07/09 07:34:51;;;;;;;;;;;26.40;85.30;;;;;;7597482;19;19911;-74
2023/07/09 07:37:23;;;;;;;;;;;26.50;83.50;;;;;;7591409;19;19914;-74
2023/07/09 07:39:55;;;;;;;;;;;26.70;85.00;;;;;;7593328;19;19961;-74
2023/07/09 07:42:28;;;;;;;;;;;26.80;84.70;;;;;;7598504;19;19919;-75
2023/07/09 07:45:00;;;;;;;;;;;;;;;;;;7587339;19;19974;-74
2023/07/09 07:47:33;;;;;;;;;;;;;;;;;;7581350;19;19927;-74
2023/07/09 07:50:08;;;;;;;;;;;26.90;81.90;;;;;;7584732;19;19927;-75
2023/07/09 07:52:41;;;;;;;;;;;27.30;82.10;;;;;;7539201;19;19923;-75
2023/07/09 07:55:13;;;;;;;;;;;27.30;77.80;;;;;;7544578;19;19914;-75
2023/07/09 07:57:49;;;;;;;;;;;27.40;77.60;;;;;;7564895;19;20038;-75
2023/07/09 08:00:21;;;;;;;;;;;27.50;77.10;;;;;;7581762;19;19915;-76
2023/07/09 08:02:53;;;;;;;;;;;27.50;75.50;;;;;;7598602;19;19929;-75
2023/07/09 08:05:28;;;;;;;;;;;27.50;76.00;;;;;;7594307;19;19918;-75
2023/07/09 08:08:00;;;;;;;;;;;27.60;75.10;;;;;;7605647;19;19911;-75
2023/07/09 08:10:33;;;;;;;;;;;;;;;;;;7597151;19;19919;-75
2023/07/09 08:13:06;;;;;;;;;;;;;;;;;;7601942;19;19926;-75
2023/07/09 08:15:38;;;;;;;;;;;27.70;73.90;;;;;;7598673;19;19922;-75
2023/07/09 08:18:10;;;;;;;;;;;28.00;68.60;;;;;;7607304;19;19937;-75
2023/07/09 08:20:44;;;;;;;;;;;28.00;69.00;;;;;;7582531;19;19939;-75
2023/07/09 08:23:16;;;;;;;;;;;28.00;68.50;;;;;;7602871;19;20267;-75
2023/07/09 08:25:53;;;;;;;;;;;28.00;68.30;;;;;;7595476;19;19918;-76
2023/07/09 08:28:25;;;;;;;;;;;28.00;66.90;;;;;;7586248;19;21278;-75
2023/07/09 08:30:57;;;;;;;;;;;28.00;67.80;;;;;;7603928;19;19922;-74
2023/07/09 08:33:30;;;;;;;;;;;28.10;69.70;;;;;;7604411;19;19947;-75
2023/07/09 08:36:02;;;;;;;;;;;28.30;69.70;;;;;;7590344;19;20219;-76
2023/07/09 08:38:35;;;;;;;;;;;28.40;64.40;;;;;;7593581;19;20905;-75
2023/07/09 08:41:07;;;;;;;;;;;28.50;65.60;;;;;;7601781;19;19922;-75
2023/07/09 08:44:01;;;;;;;;;;;28.50;63.30;;;;;;7608781;19;19906;-75
2023/07/09 08:46:52;;;;;;;;;;;28.70;64.00;;;;;;7596696;19;20282;-75
2023/07/09 08:49:36;;;;;;;;;;;28.80;62.50;;;;;;7593156;19;19930;-75
2023/07/09 08:52:18;;;;;;;;;;;28.80;62.80;;;;;;7599775;19;20275;-74
2023/07/09 08:54:52;;;;;;;;;;;28.80;63.50;;;;;;7606026;19;19943;-75
2023/07/09 08:57:25;;;;;;;;;;;28.80;60.30;;;;;;7600004;19;19918;-74
2023/07/09 09:00:00;;;;;;;;;;;28.70;61.90;;;;;;7587975;19;20016;-75
2023/07/09 09:02:35;;;;;;;;;;;29.00;61.60;;;;;;7591802;19;19935;-75
2023/07/09 09:05:17;;;;;;;;;;;28.80;60.90;;;;;;7599953;19;21551;-74
2023/07/09 09:07:57;;;;;;;;;;;28.90;62.80;;;;;;7604804;19;19922;-75
2023/07/09 09:10:34;;;;;;;;;;;;;;;;;;7609014;19;19922;-76
2023/07/09 09:13:09;;;;;;;;;;;;;;;;;;7605234;19;19927;-75
2023/07/09 09:15:42;;;;;;;;;;;;;;;;;;7600803;19;19929;-75
2023/07/09 09:18:14;;;;;;;;;;;;;;;;;;7602270;19;19915;-73
2023/07/09 09:20:47;;;;;;;;;;;;;;;;;;7587258;19;19919;-74
2023/07/09 09:23:19;;;;;;;;;;;;;;;;;;7602631;19;19986;-75
2023/07/09 09:25:52;;;;;;;;;;;;;;;;;;7606023;19;20478;-74
2023/07/09 09:28:40;;;;;;;;;;;;;;;;;;7609872;19;20781;-73
2023/07/09 09:31:12;;;;;;;;;;;;;;;;;;7604249;19;19929;-73
2023/07/09 09:33:45;;;;;;;;;;;;;;;;;;7603320;19;19957;-73
2023/07/09 09:36:17;;;;;;;;;;;;;;;;;;7602571;19;19926;-72
2023/07/09 09:38:50;;;;;;;;;;;29.20;63.80;;;;;;7597752;19;19922;-73
2023/07/09 09:41:23;;;;;;;;;;;;;;;;;;7598763;19;19933;-73
2023/07/09 09:43:56;;;;;;;;;;;29.80;62.00;;;;;;7605100;19;19922;-73
2023/07/09 09:46:31;;;;;;;;;;;29.80;62.80;;;;;;7605857;19;20838;-74
2023/07/09 09:49:03;;;;;;;;;;;29.90;60.70;;;;;;7601058;19;19978;-74
2023/07/09 09:51:36;;;;;;;;;;;29.90;59.20;;;;;;7603334;19;19934;-74
2023/07/09 09:54:14;;;;;;;;;;;29.70;59.90;;;;;;7601887;19;20724;-74
2023/07/09 09:56:48;;;;;;;;;;;29.80;60.60;;;;;;7605007;19;19994;-76
2023/07/09 09:59:23;;;;;;;;;;;29.70;59.50;;;;;;7589310;19;19926;-73
2023/07/09 10:01:57;;;;;;;;;;;29.80;62.30;;;;;;7572445;19;20729;-73
2023/07/09 10:04:29;;;;;;;;;;;29.90;59.50;;;;;;7602642;19;21076;-75
2023/07/09 10:07:05;;;;;;;;;;;30.00;59.80;;;;;;7605512;19;21046;-74
2023/07/09 10:09:47;;;;;;;;;;;30.10;60.00;;;;;;7605766;19;19918;-74
2023/07/09 10:12:22;;;;;;;;;;;30.20;60.00;;;;;;7604647;19;19926;-74
2023/07/09 10:14:54;;;;;;;;;;;30.30;59.00;;;;;;7589245;19;19944;-73
2023/07/09 10:17:34;;;;;;;;;;;30.40;58.80;;;;;;7595081;19;19994;-73
2023/07/09 10:20:06;;;;;;;;;;;30.40;58.80;;;;;;7598693;19;20524;-73
2023/07/09 10:22:52;;;;;;;;;;;30.50;58.20;;;;;;7595422;19;19995;-74
2023/07/09 10:25:37;;;;;;;;;;;30.60;58.10;;;;;;7603513;19;19930;-73
2023/07/09 10:28:28;;;;;;;;;;;30.90;59.40;;;;;;7540059;19;19918;-75
2023/07/09 10:31:11;;;;;;;;;;;31.10;57.00;;;;;;7556971;19;19918;-77
2023/07/09 10:33:53;;;;;;;;;;;31.40;57.70;;;;;;7504686;19;19962;-77
2023/07/09 10:36:31;;;;;;;;;;;31.60;55.40;;;;;;7572791;19;19927;-77
2023/07/09 10:39:06;;;;;;;;;;;31.50;56.00;;;;;;7575235;19;19926;-77
2023/07/09 10:41:40;;;;;;;;;;;31.30;57.70;;;;;;7576035;19;20351;-77
2023/07/09 10:44:18;;;;;;;;;;;31.20;56.60;;;;;;7561150;19;19964;-79
2023/07/09 10:46:53;;;;;;;;;;;30.90;57.40;;;;;;7574130;19;20894;-78
2023/07/09 10:49:39;;;;;;;;;;;30.70;57.60;;;;;;7596852;19;19916;-78
2023/07/09 10:52:27;;;;;;;;;;;30.50;58.20;;;;;;7588181;19;20282;-77
2023/07/09 10:55:01;;;;;;;;;;;30.40;58.00;;;;;;7587166;19;19919;-77
2023/07/09 10:57:48;;;;;;;;;;;30.30;58.80;;;;;;7593847;19;19926;-77
2023/07/09 11:00:22;;;;;;;;;;;30.30;58.50;;;;;;7586888;19;20438;-76
2023/07/09 11:02:59;;;;;;;;;;;30.20;58.50;;;;;;7560610;19;19923;-77
2023/07/09 11:05:33;;;;;;;;;;;30.10;59.20;;;;;;7588139;19;19923;-77
2023/07/09 11:08:31;;;;;;;;;;;30.00;59.70;;;;;;7565848;19;19968;-76
2023/07/09 11:11:07;;;;;;;;;;;29.90;60.40;;;;;;7584814;19;20861;-78
2023/07/09 11:13:45;;;;;;;;;;;29.90;60.00;;;;;;7583905;19;20539;-76
2023/07/09 11:16:30;;;;;;;;;;;30.00;59.50;;;;;;7569826;19;20039;-76
2023/07/09 11:19:03;;;;;;;;;;;30.20;58.70;;;;;;7545564;19;19930;-76
2023/07/09 11:21:40;;;;;;;;;;;30.70;57.70;;;;;;7551072;19;19926;-76
2023/07/09 11:24:28;;;;;;;;;;;31.40;55.50;;;;;;7584907;19;19923;-75
2023/07/09 11:27:01;;;;;;;;;;;31.80;52.90;;;;;;7575125;19;19926;-76
2023/07/09 11:29:34;;;;;;;;;;;31.90;52.70;;;;;;7555806;19;19927;-77
2023/07/09 11:32:07;;;;;;;;;;;31.70;53.30;;;;;;7563462;19;19934;-76
2023/07/09 11:34:45;;;;;;;;;;;31.40;55.20;;;;;;7582193;19;19930;-77
2023/07/09 11:37:17;;;;;;;;;;;31.30;54.90;;;;;;7588719;19;19993;-77
2023/07/09 11:39:49;;;;;;;;;;;31.20;54.30;;;;;;7533312;19;19933;-78
2023/07/09 11:42:32;;;;;;;;;;;30.80;54.00;;;;;;7558838;19;19926;-77
2023/07/09 11:45:09;;;;;;;;;;;30.70;55.90;;;;;;7551410;19;19949;-78
2023/07/09 11:47:50;;;;;;;;;;;30.60;57.00;;;;;;7590255;19;19939;-77
2023/07/09 11:50:25;;;;;;;;;;;30.60;58.60;;;;;;7587734;19;20343;-78
2023/07/09 11:53:32;;;;;;;;;;;30.50;56.70;;;;;;7592226;19;19923;-79
2023/07/09 11:56:07;;;;;;;;;;;30.50;58.00;;;;;;7584425;19;20726;-77
2023/07/09 11:58:52;;;;;;;;;;;31.00;58.70;;;;;;7585702;19;20643;-76
2023/07/09 12:01:25;;;;;;;;;;;;;;;;;;7541877;19;19947;-76
2023/07/09 12:03:58;;;;;;;;;;;;;;;;;;7603840;19;19926;-76
2023/07/09 12:06:30;;;;;;;;;;;;;;;;;;7604033;19;19930;-76
2023/07/09 12:09:02;;;;;;;;;;;31.60;56.70;;;;;;7588479;19;19922;-76
2023/07/09 12:11:35;;;;;;;;;;;34.10;50.30;;;;;;7600188;19;20492;-76
2023/07/09 12:14:11;;;;;;;;;;;34.20;50.50;;;;;;7592969;19;19926;-76
2023/07/09 12:16:48;;;;;;;;;;;34.10;49.60;;;;;;7603355;19;19996;-75
2023/07/09 12:19:22;;;;;;;;;;;34.00;49.70;;;;;;7602848;19;19926;-75
2023/07/09 12:21:56;;;;;;;;;;;33.70;51.20;;;;;;7608946;19;19919;-75
2023/07/09 12:24:31;;;;;;;;;;;33.70;50.30;;;;;;7601334;19;19915;-75
2023/07/09 12:27:14;;;;;;;;;;;33.50;50.20;;;;;;7603474;19;19925;-75
2023/07/09 12:29:46;;;;;;;;;;;33.30;50.90;;;;;;7604436;19;20485;-75
2023/07/09 12:32:20;;;;;;;;;;;33.00;50.70;;;;;;7599538;19;19915;-75
2023/07/09 12:34:54;;;;;;;;;;;32.70;51.40;;;;;;7613646;19;20373;-74
2023/07/09 12:37:30;;;;;;;;;;;32.50;50.90;;;;;;7574350;19;20002;-74
2023/07/09 12:40:03;;;;;;;;;;;32.90;50.50;;;;;;7614548;19;19926;-74
2023/07/09 12:42:36;;;;;;;;;;;33.60;50.80;;;;;;7600393;19;20366;-75
2023/07/09 12:45:16;;;;;;;;;;;33.70;48.50;;;;;;7608407;19;19930;-76
2023/07/09 12:47:49;;;;;;;;;;;34.00;49.40;;;;;;7611111;19;20548;-74
2023/07/09 12:50:29;;;;;;;;;;;34.00;49.30;;;;;;7605649;19;21551;-75
2023/07/09 12:53:03;;;;;;;;;;;33.80;49.00;;;;;;7616289;19;19926;-75
2023/07/09 12:55:39;;;;;;;;;;;33.90;50.20;;;;;;7598868;19;19930;-75
2023/07/09 12:58:12;;;;;;;;;;;;;;;;;;7614346;19;19947;-74
2023/07/09 13:00:51;;;;;;;;;;;;;;;;;;7556580;19;19919;-76
2023/07/09 13:03:27;;;;;;;;;;;34.50;49.20;;;;;;7568320;19;19914;-76
2023/07/09 13:06:01;;;;;;;;;;;34.80;47.40;;;;;;7590182;19;19915;-76
2023/07/09 13:08:40;;;;;;;;;;;34.20;50.20;;;;;;7567191;19;19990;-76
2023/07/09 13:11:13;;;;;;;;;;;;;;;;;;7557835;19;19984;-76
2023/07/09 13:13:45;;;;;;;;;;;;;;;;;;7550248;19;19964;-76
2023/07/09 13:16:18;;;;;;;;;;;;;;;;;;7559447;19;20387;-77
2023/07/09 13:18:51;;;;;;;;;;;;;;;;;;7584641;19;19933;-77
2023/07/09 13:21:23;;;;;;;;;;;;;;;;;;7582621;19;19918;-77
2023/07/09 13:23:56;;;;;;;;;;;;;;;;;;7590034;19;19922;-76
2023/07/09 13:26:28;;;;;;;;;;;;;;;;;;7545527;19;19930;-79
2023/07/09 13:29:02;;;;;;;;;;;;;;;;;;7584584;19;19935;-77
2023/07/09 13:31:34;;;;;;;;;;;;;;;;;;7572736;19;20908;-76
2023/07/09 13:34:07;;;;;;;;;;;;;;;;;;7557605;19;19926;-76
2023/07/09 13:36:39;;;;;;;;;;;;;;;;;;7578139;19;19923;-77
2023/07/09 13:39:15;;;;;;;;;;;;;;;;;;7557508;19;19922;-77
2023/07/09 13:41:47;;;;;;;;;;;;;;;;;;7586184;19;19923;-79
2023/07/09 13:44:21;;;;;;;;;;;;;;;;;;7587740;19;19959;-77
2023/07/09 13:46:53;;;;;;;;;;;;;;;;;;7582358;19;19914;-77
2023/07/09 13:49:27;;;;;;;;;;;;;;;;;;7581489;19;19994;-76
2023/07/09 13:51:59;;;;;;;;;;;;;;;;;;7576530;19;19922;-76
2023/07/09 13:54:35;;;;;;;;;;;;;;;;;;7590796;19;19921;-76
2023/07/09 13:57:08;;;;;;;;;;;;;;;;;;7600240;19;19914;-78
2023/07/09 13:59:41;;;;;;;;;;;;;;;;;;7578472;19;19922;-77
2023/07/09 14:02:13;;;;;;;;;;;;;;;;;;7583062;19;19929;-76
2023/07/09 14:04:46;;;;;;;;;;;;;;;;;;7561215;19;19926;-78
2023/07/09 14:07:18;;;;;;;;;;;;;;;;;;7556735;19;20423;-76
2023/07/09 14:09:51;;;;;;;;;;;;;;;;;;7559350;19;19922;-74
2023/07/09 14:12:23;;;;;;;;;;;;;;;;;;7575125;19;19918;-76
2023/07/09 14:14:56;;;;;;;;;;;;;;;;;;7596162;19;19923;-75
2023/07/09 14:17:29;;;;;;;;;;;;;;;;;;7560197;19;20724;-75
2023/07/09 14:20:01;;;;;;;;;;;34.50;49.00;;;;;;7547330;19;19918;-76
2023/07/09 14:22:34;;;;;;;;;;;;;;;;;;7567903;19;19997;-76
2023/07/09 14:25:06;;;;;;;;;;;;;;;;;;7592788;19;19986;-75
2023/07/09 14:27:38;;;;;;;;;;;;;;;;;;7579326;19;21181;-75
2023/07/09 14:30:11;;;;;;;;;;;;;;;;;;7582111;19;20595;-75
2023/07/09 14:32:44;;;;;;;;;;;;;;;;;;7576176;19;20290;-76
2023/07/09 14:35:18;;;;;;;;;;;34.80;46.00;;;;;;7591162;19;19919;-75
2023/07/09 14:37:50;;;;;;;;;;;;;;;;;;7575941;19;19918;-76
2023/07/09 14:40:23;;;;;;;;;;;;;;;;;;7582066;19;20429;-75
2023/07/09 14:42:56;;;;;;;;;;;;;;;;;;7588077;19;19974;-75
2023/07/09 14:45:29;;;;;;;;;;;;;;;;;;7570673;19;19922;-74
2023/07/09 14:48:02;;;;;;;;;;;;;;;;;;7574022;19;19922;-75
2023/07/09 14:50:35;;;;;;;;;;;;;;;;;;7560743;19;19920;-75
2023/07/09 14:53:07;;;;;;;;;;;;;;;;;;7575680;19;19923;-75
2023/07/09 14:55:40;;;;;;;;;;;;;;;;;;7567013;19;19939;-76
2023/07/09 14:58:12;;;;;;;;;;;;;;;;;;7583280;19;19914;-76
2023/07/09 15:00:46;;;;;;;;;;;;;;;;;;7549643;19;22195;-77
2023/07/09 15:03:19;;;;;;;;;;;;;;;;;;7584262;19;19947;-76
2023/07/09 15:05:51;;;;;;;;;;;;;;;;;;7574733;19;19923;-76
2023/07/09 15:08:24;;;;;;;;;;;;;;;;;;7585291;19;19914;-74
2023/07/09 15:10:57;;;;;;;;;;;;;;;;;;7563947;19;21702;-76
2023/07/09 15:13:29;;;;;;;;;;;;;;;;;;7572647;19;21185;-75
2023/07/09 15:16:02;;;;;;;;;;;;;;;;;;7561997;19;19926;-75
2023/07/09 15:18:36;;;;;;;;;;;;;;;;;;7579510;19;20271;-76
2023/07/09 15:21:09;;;;;;;;;;;;;;;;;;7586678;19;20380;-75
2023/07/09 15:23:41;;;;;;;;;;;;;;;;;;7584972;19;21212;-75
2023/07/09 15:26:14;;;;;;;;;;;;;;;;;;7560254;19;19953;-75
2023/07/09 15:28:50;;;;;;;;;;;;;;;;;;7539682;19;19918;-74
2023/07/09 15:31:23;;;;;;;;;;;;;;;;;;7492722;19;19927;-75
2023/07/09 15:33:56;;;;;;;;;;;;;;;;;;7520707;19;25486;-74
2023/07/09 15:36:28;;;;;;;;;;;;;;;;;;7560038;19;19927;-75
2023/07/09 15:39:01;;;;;;;;;;;;;;;;;;7544025;19;19946;-75
2023/07/09 15:41:34;;;;;;;;;;;;;;;;;;7544063;19;19929;-74